Terminal Aerodrome Forecast
Issued by NWS North Platte, NE

Home | Current Version | Previous Version | Graphics & Text | Print | Product List | Glossary On
Versions: 1 2 3 4 5 6 7 8 9 10 11 12 13 14 15 16 17 18 19 20 21 22 23 24 25
000
FTUS43 KLBF 240500 CCA
TAFVTN
TAF COR
KVTN 240559Z 2406/2506 27011KT P6SM SCT100
     FM241200 30012G18KT P6SM SCT025
     FM241600 30012G18KT P6SM SCT100
     FM242100 31010KT P6SM BKN100
     FM250000 VRB06KT P6SM OVC100=

USA.gov is the U.S. government's official web portal to all federal, state and local government web resources and services.